Airport View

Enter AWOS ICAO identifier for current METAR.

ex. KFNL

KWDG 310335Z AUTO 12006KT 10SM CLR 18/13 A3014 RMK AO2

31 May 2020 03:57

Frequency: 120.625

Phone: 580-237-1475

Other Area AWOS: KEND - KBKN - KGOK - KSWO

TAF AMD KEND 302333Z 3023/3124 13015G20KT 9999 SKC QNH3004INS BECMG 3103/3104 13010KT 9999 SKC QNH3008INS TX29/3023Z TN16/3112Z LAST NO AMDS AFT 3023 NEXT 0111